Time;durP1;ratioP1;P1;durP2;ratioP2;P2;SDS_P1;SDS_P2;PMS_P1;PMS_P2;Temp;Humidity;BMP_temperature;BMP_pressure;BME280_temperature;BME280_humidity;BME280_pressure;Samples;Min_cycle;Max_cycle;Signal;HPM_P1;HPM_P2
2022/05/01 00:00:46;;;;;;;;;;;10.60;73.30;;;;;;5027337;28;19939;-72
2022/05/01 00:05:59;;;;;;;;;;;10.60;73.50;;;;;;5029492;28;19929;-72
2022/05/01 00:08:25;;;;;;;;;;;10.50;73.30;;;;;;5049981;28;19909;-73
2022/05/01 00:10:51;;;;;;;;;;;10.60;73.60;;;;;;5033972;28;19916;-72
2022/05/01 00:13:16;;;;;;;;;;;10.50;73.70;;;;;;5034263;28;19921;-72
2022/05/01 00:15:42;;;;;;;;;;;10.50;74.00;;;;;;5029097;28;19917;-70
2022/05/01 00:18:08;;;;;;;;;;;10.50;74.30;;;;;;5027420;28;19949;-72
2022/05/01 00:20:33;;;;;;;;;;;10.40;74.40;;;;;;5030173;28;19975;-71
2022/05/01 00:22:59;;;;;;;;;;;10.40;74.80;;;;;;5031313;28;20008;-71
2022/05/01 00:25:25;;;;;;;;;;;10.40;75.30;;;;;;5027945;28;19982;-71
2022/05/01 00:27:51;;;;;;;;;;;10.30;75.50;;;;;;5027490;28;19913;-72
2022/05/01 00:30:16;;;;;;;;;;;10.30;75.00;;;;;;5030215;28;19920;-71
2022/05/01 00:38:10;;;;;;;;;;;10.20;75.60;;;;;;5039273;28;20327;-72
2022/05/01 00:40:36;;;;;;;;;;;10.20;76.20;;;;;;5030784;28;19917;-73
2022/05/01 00:43:05;;;;;;;;;;;10.20;76.20;;;;;;5030382;28;19924;-73
2022/05/01 00:45:31;;;;;;;;;;;10.20;76.90;;;;;;5027750;28;19913;-73
2022/05/01 00:47:56;;;;;;;;;;;10.20;76.50;;;;;;5030212;28;19936;-74
2022/05/01 00:50:22;;;;;;;;;;;10.10;76.80;;;;;;5031096;28;20008;-72
2022/05/01 00:52:48;;;;;;;;;;;10.10;76.90;;;;;;5043383;28;19956;-73
2022/05/01 00:55:13;;;;;;;;;;;10.10;76.90;;;;;;5033664;28;19921;-73
2022/05/01 00:57:39;;;;;;;;;;;10.10;77.10;;;;;;5029683;28;20282;-74
2022/05/01 01:00:05;;;;;;;;;;;10.00;77.60;;;;;;5038935;28;19921;-73
2022/05/01 01:02:31;;;;;;;;;;;10.00;77.90;;;;;;5030297;28;20277;-74
2022/05/01 01:04:57;;;;;;;;;;;10.00;77.70;;;;;;5030804;28;19910;-72
2022/05/01 01:07:25;;;;;;;;;;;10.00;78.10;;;;;;5035022;28;19999;-73
2022/05/01 01:09:51;;;;;;;;;;;10.00;78.00;;;;;;5034579;28;20418;-73
2022/05/01 01:15:09;;;;;;;;;;;10.00;78.60;;;;;;5028622;28;19928;-73
2022/05/01 01:17:42;;;;;;;;;;;9.90;78.20;;;;;;5029287;28;19916;-73
2022/05/01 01:20:09;;;;;;;;;;;9.90;78.40;;;;;;5030212;28;20297;-73
2022/05/01 01:22:36;;;;;;;;;;;9.90;79.20;;;;;;5029257;28;19960;-73
2022/05/01 01:25:02;;;;;;;;;;;9.90;78.80;;;;;;5029780;28;19914;-73
2022/05/01 01:27:27;;;;;;;;;;;9.90;78.50;;;;;;5030998;28;20282;-73
2022/05/01 01:32:39;;;;;;;;;;;9.80;79.00;;;;;;5029861;28;19916;-74
2022/05/01 01:35:06;;;;;;;;;;;9.80;79.20;;;;;;5031041;28;19917;-72
2022/05/01 01:37:33;;;;;;;;;;;9.80;79.00;;;;;;5028426;28;19921;-74
2022/05/01 01:39:59;;;;;;;;;;;9.80;79.60;;;;;;5030284;28;20011;-73
2022/05/01 01:42:25;;;;;;;;;;;9.70;79.30;;;;;;5032444;28;20002;-74
2022/05/01 01:44:51;;;;;;;;;;;9.70;79.80;;;;;;5027573;28;19913;-74
2022/05/01 01:47:17;;;;;;;;;;;9.70;79.90;;;;;;5054033;28;19924;-73
2022/05/01 01:49:43;;;;;;;;;;;9.70;80.10;;;;;;5030481;28;19913;-73
2022/05/01 01:52:08;;;;;;;;;;;9.60;80.10;;;;;;5032268;28;20290;-74
2022/05/01 01:54:34;;;;;;;;;;;9.60;80.10;;;;;;5029885;28;20004;-72
2022/05/01 01:56:59;;;;;;;;;;;9.60;79.50;;;;;;5031277;28;20302;-71
2022/05/01 01:59:27;;;;;;;;;;;9.50;80.90;;;;;;5033441;28;20437;-71
2022/05/01 02:01:53;;;;;;;;;;;9.50;81.10;;;;;;5030790;28;19916;-71
2022/05/01 02:04:18;;;;;;;;;;;9.50;81.30;;;;;;5031465;28;19913;-71
2022/05/01 02:06:44;;;;;;;;;;;9.40;80.10;;;;;;5032571;28;19921;-73
2022/05/01 02:09:12;;;;;;;;;;;9.40;80.30;;;;;;5022685;28;19941;-72
2022/05/01 02:11:38;;;;;;;;;;;9.40;80.70;;;;;;5033974;28;19920;-72
2022/05/01 02:14:05;;;;;;;;;;;9.40;81.30;;;;;;5033918;28;19925;-71
2022/05/01 02:16:30;;;;;;;;;;;9.40;81.60;;;;;;5037574;28;19913;-72
2022/05/01 02:18:56;;;;;;;;;;;9.40;81.50;;;;;;5036170;28;19913;-72
2022/05/01 02:21:34;;;;;;;;;;;9.30;82.20;;;;;;5032586;28;20426;-71
2022/05/01 02:23:59;;;;;;;;;;;9.30;81.70;;;;;;5023293;28;20298;-72
2022/05/01 02:26:25;;;;;;;;;;;9.30;82.10;;;;;;5032333;28;20404;-72
2022/05/01 02:28:50;;;;;;;;;;;9.30;82.60;;;;;;5034479;28;20013;-72
2022/05/01 02:31:17;;;;;;;;;;;9.20;82.10;;;;;;5035888;28;19916;-71
2022/05/01 02:33:43;;;;;;;;;;;9.20;82.20;;;;;;5029101;28;19932;-70
2022/05/01 02:36:09;;;;;;;;;;;9.20;82.60;;;;;;5029201;28;19909;-71
2022/05/01 02:38:34;;;;;;;;;;;9.20;82.80;;;;;;5031246;28;20313;-71
2022/05/01 02:41:01;;;;;;;;;;;9.20;83.20;;;;;;5031621;28;19913;-72
2022/05/01 02:43:27;;;;;;;;;;;9.20;82.80;;;;;;5031865;28;19910;-71
2022/05/01 02:45:52;;;;;;;;;;;9.10;83.30;;;;;;5033371;28;19913;-72
2022/05/01 02:48:18;;;;;;;;;;;9.10;83.40;;;;;;5043338;28;20386;-71
2022/05/01 02:50:43;;;;;;;;;;;9.10;83.70;;;;;;5031571;28;19913;-71
2022/05/01 02:53:09;;;;;;;;;;;9.10;83.40;;;;;;5033538;28;19923;-71
2022/05/01 02:55:34;;;;;;;;;;;9.10;83.60;;;;;;5029000;28;19917;-70
2022/05/01 02:58:00;;;;;;;;;;;9.10;83.50;;;;;;5032069;28;20290;-71
2022/05/01 03:00:26;;;;;;;;;;;9.10;83.20;;;;;;5031952;28;19914;-71
2022/05/01 03:02:55;;;;;;;;;;;9.10;83.70;;;;;;5034064;28;19913;-71
2022/05/01 03:05:21;;;;;;;;;;;9.10;84.30;;;;;;5029025;28;19909;-71
2022/05/01 03:07:48;;;;;;;;;;;9.10;84.30;;;;;;5044952;28;19924;-70
2022/05/01 03:10:13;;;;;;;;;;;9.00;84.30;;;;;;5034364;28;19913;-70
2022/05/01 03:12:39;;;;;;;;;;;9.00;83.80;;;;;;5031368;28;19921;-70
2022/05/01 03:15:05;;;;;;;;;;;9.00;84.20;;;;;;5031579;28;19959;-71
2022/05/01 03:22:10;;;;;;;;;;;9.00;84.30;;;;;;5050542;28;19909;-70
2022/05/01 03:23:00;;;;;;;;;;;8.90;84.20;;;;;;5031653;28;19919;-70
2022/05/01 03:25:26;;;;;;;;;;;8.90;85.30;;;;;;5027489;28;19909;-68
2022/05/01 03:27:53;;;;;;;;;;;8.80;85.30;;;;;;5032984;28;19919;-69
2022/05/01 03:30:19;;;;;;;;;;;8.80;85.50;;;;;;5043512;28;19916;-69
2022/05/01 03:32:45;;;;;;;;;;;8.80;85.30;;;;;;5043674;28;19924;-70
2022/05/01 03:35:10;;;;;;;;;;;8.80;85.50;;;;;;5049179;28;19908;-72
2022/05/01 03:37:36;;;;;;;;;;;8.80;85.20;;;;;;5030708;28;19945;-71
2022/05/01 03:40:03;;;;;;;;;;;8.80;85.80;;;;;;5030090;28;20012;-71
2022/05/01 03:42:29;;;;;;;;;;;8.80;85.40;;;;;;5034515;28;19913;-70
2022/05/01 03:44:55;;;;;;;;;;;8.80;86.00;;;;;;5028882;28;19913;-70
2022/05/01 03:47:20;;;;;;;;;;;8.80;85.90;;;;;;5031881;28;19970;-70
2022/05/01 03:49:46;;;;;;;;;;;8.80;85.90;;;;;;5027705;28;19917;-71
2022/05/01 03:52:11;;;;;;;;;;;8.70;85.80;;;;;;5036075;28;19913;-69
2022/05/01 03:54:37;;;;;;;;;;;8.70;86.60;;;;;;5037867;28;19921;-70
2022/05/01 03:57:05;;;;;;;;;;;8.70;86.80;;;;;;5035920;28;20197;-71
2022/05/01 03:59:30;;;;;;;;;;;8.60;86.40;;;;;;5030341;28;19909;-70
2022/05/01 04:01:56;;;;;;;;;;;8.60;86.80;;;;;;5045410;28;20648;-71
2022/05/01 04:04:21;;;;;;;;;;;8.60;87.10;;;;;;5031580;28;19913;-69
2022/05/01 04:06:47;;;;;;;;;;;8.60;87.10;;;;;;5027094;28;19920;-69
2022/05/01 04:09:12;;;;;;;;;;;8.60;86.80;;;;;;5029821;28;19967;-68
2022/05/01 04:11:38;;;;;;;;;;;8.60;87.20;;;;;;5041284;28;19908;-70
2022/05/01 04:14:03;;;;;;;;;;;8.60;87.00;;;;;;5046728;28;19917;-70
2022/05/01 04:16:29;;;;;;;;;;;8.50;87.30;;;;;;5032077;28;19919;-70
2022/05/01 04:18:54;;;;;;;;;;;8.50;87.00;;;;;;5029608;28;20397;-70
2022/05/01 04:21:20;;;;;;;;;;;8.50;88.00;;;;;;5028659;28;19916;-70
2022/05/01 04:23:46;;;;;;;;;;;8.50;87.30;;;;;;5029446;28;19928;-71
2022/05/01 04:26:12;;;;;;;;;;;8.50;87.40;;;;;;5034204;28;19909;-69
2022/05/01 04:28:37;;;;;;;;;;;8.50;87.50;;;;;;5031695;28;19913;-70
2022/05/01 04:31:06;;;;;;;;;;;8.50;87.60;;;;;;5035724;28;19913;-70
2022/05/01 04:33:31;;;;;;;;;;;8.50;87.70;;;;;;5029608;28;19921;-69
2022/05/01 04:35:56;;;;;;;;;;;8.50;87.90;;;;;;5026690;28;19929;-71
2022/05/01 04:38:24;;;;;;;;;;;8.50;88.30;;;;;;5031751;28;20144;-70
2022/05/01 04:40:54;;;;;;;;;;;8.50;89.00;;;;;;5022174;28;20301;-70
2022/05/01 04:43:20;;;;;;;;;;;8.50;87.60;;;;;;5029048;28;20705;-71
2022/05/01 04:45:47;;;;;;;;;;;8.50;88.30;;;;;;5027775;28;20003;-71
2022/05/01 04:48:14;;;;;;;;;;;8.50;88.60;;;;;;5027113;28;19948;-70
2022/05/01 04:50:40;;;;;;;;;;;8.50;88.60;;;;;;5028535;28;19916;-72
2022/05/01 04:53:06;;;;;;;;;;;8.50;89.10;;;;;;5029824;28;20297;-72
2022/05/01 04:55:32;;;;;;;;;;;8.50;88.50;;;;;;5030731;28;19917;-71
2022/05/01 04:57:58;;;;;;;;;;;8.50;89.40;;;;;;5037564;28;19960;-70
2022/05/01 05:00:24;;;;;;;;;;;8.50;89.20;;;;;;5037255;28;19917;-70
2022/05/01 05:02:51;;;;;;;;;;;8.50;88.70;;;;;;5038401;28;19921;-71
2022/05/01 05:05:17;;;;;;;;;;;8.50;89.50;;;;;;5045822;28;19909;-73
2022/05/01 05:07:42;;;;;;;;;;;8.50;89.40;;;;;;5030183;28;20382;-71
2022/05/01 05:10:08;;;;;;;;;;;8.50;89.30;;;;;;5030161;28;19913;-71
2022/05/01 05:12:37;;;;;;;;;;;8.50;89.70;;;;;;5038583;28;20328;-71
2022/05/01 05:15:05;;;;;;;;;;;8.50;89.90;;;;;;5047329;28;20707;-71
2022/05/01 05:17:31;;;;;;;;;;;8.60;90.00;;;;;;5034009;28;20027;-71
2022/05/01 05:19:57;;;;;;;;;;;8.50;89.50;;;;;;5034796;28;19956;-69
2022/05/01 05:22:23;;;;;;;;;;;8.60;89.70;;;;;;5034032;28;19945;-70
2022/05/01 05:24:48;;;;;;;;;;;8.60;89.80;;;;;;5030027;28;20271;-69
2022/05/01 05:27:14;;;;;;;;;;;8.70;89.80;;;;;;5031026;28;19917;-69
2022/05/01 05:29:40;;;;;;;;;;;8.70;90.00;;;;;;5034879;28;19917;-68
2022/05/01 05:32:06;;;;;;;;;;;8.70;89.80;;;;;;5034777;28;20395;-71
2022/05/01 05:34:32;;;;;;;;;;;8.80;90.00;;;;;;5041910;28;20370;-69
2022/05/01 05:36:57;;;;;;;;;;;8.80;90.00;;;;;;5036817;28;20000;-67
2022/05/01 05:39:23;;;;;;;;;;;8.90;90.20;;;;;;5043770;28;19917;-69
2022/05/01 05:41:48;;;;;;;;;;;8.80;90.10;;;;;;5033316;28;20390;-68
2022/05/01 05:44:14;;;;;;;;;;;8.90;90.20;;;;;;5034734;28;19913;-69
2022/05/01 05:46:39;;;;;;;;;;;8.90;90.30;;;;;;5032991;28;19929;-70
2022/05/01 05:49:05;;;;;;;;;;;8.90;90.30;;;;;;5034081;28;20003;-70
2022/05/01 05:51:31;;;;;;;;;;;8.90;90.30;;;;;;5043079;28;19909;-69
2022/05/01 05:53:57;;;;;;;;;;;8.90;90.20;;;;;;5045345;28;19975;-70
2022/05/01 05:56:23;;;;;;;;;;;9.00;90.30;;;;;;5035139;28;19996;-70
2022/05/01 05:58:48;;;;;;;;;;;9.00;90.30;;;;;;5031223;28;19923;-69
2022/05/01 06:01:14;;;;;;;;;;;9.00;90.30;;;;;;5033299;28;19910;-70
2022/05/01 06:03:39;;;;;;;;;;;9.10;90.30;;;;;;5029907;28;19967;-69
2022/05/01 06:06:05;;;;;;;;;;;9.10;90.30;;;;;;5033091;28;20412;-69
2022/05/01 06:08:31;;;;;;;;;;;9.20;90.20;;;;;;5033788;28;19916;-70
2022/05/01 06:10:56;;;;;;;;;;;9.20;90.10;;;;;;5033507;28;19919;-71
2022/05/01 06:13:22;;;;;;;;;;;9.30;90.10;;;;;;5019681;28;19947;-71
2022/05/01 06:15:48;;;;;;;;;;;9.30;90.10;;;;;;5035769;28;19959;-71
2022/05/01 06:18:13;;;;;;;;;;;9.30;90.10;;;;;;5041622;28;19956;-70
2022/05/01 06:20:39;;;;;;;;;;;9.30;90.10;;;;;;5032625;28;19919;-70
2022/05/01 06:23:04;;;;;;;;;;;9.30;90.20;;;;;;5034945;28;20320;-70
2022/05/01 06:25:30;;;;;;;;;;;9.30;90.20;;;;;;5038384;28;20430;-69
2022/05/01 06:27:55;;;;;;;;;;;9.40;90.10;;;;;;5044205;28;19913;-70
2022/05/01 06:30:21;;;;;;;;;;;9.30;90.00;;;;;;5040859;28;19916;-69
2022/05/01 06:32:47;;;;;;;;;;;9.40;90.30;;;;;;5047661;28;19924;-71
2022/05/01 06:35:13;;;;;;;;;;;9.40;90.20;;;;;;5033754;28;20369;-69
2022/05/01 06:37:38;;;;;;;;;;;9.40;90.30;;;;;;5029279;28;19916;-68
2022/05/01 06:40:05;;;;;;;;;;;9.50;90.30;;;;;;5036201;28;19917;-69
2022/05/01 06:42:31;;;;;;;;;;;9.50;90.20;;;;;;5028741;28;19952;-68
2022/05/01 06:44:57;;;;;;;;;;;9.60;90.20;;;;;;5032097;28;20317;-68
2022/05/01 06:47:22;;;;;;;;;;;9.70;90.20;;;;;;5033558;28;19928;-69
2022/05/01 06:49:48;;;;;;;;;;;9.70;90.20;;;;;;5039718;28;19921;-70
2022/05/01 06:52:13;;;;;;;;;;;9.80;90.20;;;;;;5035866;28;20452;-71
2022/05/01 06:54:39;;;;;;;;;;;9.90;90.00;;;;;;5038627;28;19967;-71
2022/05/01 06:57:05;;;;;;;;;;;9.90;89.80;;;;;;5031362;28;19986;-69
2022/05/01 06:59:30;;;;;;;;;;;10.00;90.00;;;;;;5041323;28;20342;-68
2022/05/01 07:01:56;;;;;;;;;;;10.00;89.80;;;;;;5039744;28;20431;-69
2022/05/01 07:04:21;;;;;;;;;;;10.00;90.00;;;;;;5028180;28;19968;-70
2022/05/01 07:06:47;;;;;;;;;;;10.10;90.00;;;;;;5031372;28;19917;-61
2022/05/01 07:09:12;;;;;;;;;;;10.20;89.80;;;;;;5031378;28;19919;-62
2022/05/01 07:11:38;;;;;;;;;;;10.30;90.00;;;;;;5037910;28;19969;-67
2022/05/01 07:14:04;;;;;;;;;;;10.40;89.80;;;;;;5030269;28;20106;-67
2022/05/01 07:16:30;;;;;;;;;;;10.50;89.40;;;;;;5030163;28;19920;-68
2022/05/01 07:18:55;;;;;;;;;;;10.50;89.20;;;;;;5029481;28;20199;-66
2022/05/01 07:21:21;;;;;;;;;;;10.40;88.70;;;;;;5032097;28;19913;-67
2022/05/01 07:23:46;;;;;;;;;;;10.40;88.70;;;;;;5027317;28;19921;-68
2022/05/01 07:26:12;;;;;;;;;;;10.50;88.70;;;;;;5035468;28;19909;-65
2022/05/01 07:28:39;;;;;;;;;;;10.50;88.40;;;;;;5032412;28;19996;-67
2022/05/01 07:31:05;;;;;;;;;;;10.50;88.60;;;;;;5032491;28;19917;-67
2022/05/01 07:33:30;;;;;;;;;;;10.60;88.60;;;;;;5032591;28;19917;-68
2022/05/01 07:35:57;;;;;;;;;;;10.70;88.40;;;;;;5032697;28;19932;-68
2022/05/01 07:38:23;;;;;;;;;;;10.80;88.20;;;;;;5037300;28;19909;-68
2022/05/01 07:40:49;;;;;;;;;;;10.80;86.90;;;;;;5035532;28;19912;-68
2022/05/01 07:43:15;;;;;;;;;;;10.70;87.10;;;;;;5029533;28;19923;-67
2022/05/01 07:45:41;;;;;;;;;;;10.70;87.30;;;;;;5030997;28;19913;-66
2022/05/01 07:48:06;;;;;;;;;;;10.80;86.90;;;;;;5031804;28;19924;-65
2022/05/01 07:50:32;;;;;;;;;;;10.80;87.20;;;;;;5032898;28;20469;-66
2022/05/01 07:52:57;;;;;;;;;;;10.80;86.90;;;;;;5033346;28;19970;-65
2022/05/01 07:55:23;;;;;;;;;;;10.80;85.90;;;;;;5028187;28;19971;-65
2022/05/01 07:57:49;;;;;;;;;;;10.80;86.10;;;;;;5031387;28;19913;-65
2022/05/01 08:00:14;;;;;;;;;;;10.90;86.40;;;;;;5028056;28;20737;-62
2022/05/01 08:05:24;;;;;;;;;;;10.90;85.60;;;;;;5031899;28;19965;-66
2022/05/01 08:07:51;;;;;;;;;;;11.00;85.70;;;;;;5029853;28;19920;-64
2022/05/01 08:10:16;;;;;;;;;;;10.90;85.40;;;;;;5023545;28;20047;-65
2022/05/01 08:12:42;;;;;;;;;;;11.00;85.50;;;;;;5021998;28;20399;-64
2022/05/01 08:15:08;;;;;;;;;;;11.10;85.00;;;;;;5021686;28;20397;-63
2022/05/01 08:17:33;;;;;;;;;;;11.10;84.40;;;;;;5023003;28;19920;-65
2022/05/01 08:22:43;;;;;;;;;;;11.10;84.20;;;;;;5025409;28;19960;-64
2022/05/01 08:25:08;;;;;;;;;;;11.20;83.00;;;;;;5023265;28;19921;-65
2022/05/01 08:27:34;;;;;;;;;;;11.10;82.20;;;;;;5023479;28;19997;-63
2022/05/01 08:29:59;;;;;;;;;;;11.10;82.70;;;;;;5016691;28;19918;-64
2022/05/01 08:32:26;;;;;;;;;;;11.20;83.50;;;;;;5022787;28;19985;-62
2022/05/01 08:34:52;;;;;;;;;;;11.30;82.50;;;;;;5027376;28;19921;-63
2022/05/01 08:37:18;;;;;;;;;;;11.30;82.80;;;;;;5023034;28;20306;-62
2022/05/01 08:39:44;;;;;;;;;;;11.40;83.00;;;;;;5023785;28;19913;-62
2022/05/01 08:42:09;;;;;;;;;;;11.40;83.30;;;;;;5026302;28;19917;-66
2022/05/01 08:44:36;;;;;;;;;;;11.50;82.80;;;;;;5024161;28;19947;-63
2022/05/01 08:47:01;;;;;;;;;;;11.50;82.60;;;;;;5023710;28;19941;-62
2022/05/01 08:49:28;;;;;;;;;;;11.60;82.30;;;;;;5021726;28;19917;-62
2022/05/01 08:51:54;;;;;;;;;;;11.60;82.30;;;;;;5027567;28;19920;-64
2022/05/01 08:54:22;;;;;;;;;;;11.60;82.90;;;;;;5021061;28;19925;-64
2022/05/01 08:56:48;;;;;;;;;;;11.70;82.40;;;;;;5023388;28;19916;-64
2022/05/01 08:59:14;;;;;;;;;;;11.80;82.20;;;;;;5026380;28;19921;-65
2022/05/01 09:01:40;;;;;;;;;;;11.90;82.50;;;;;;5026006;28;19961;-65
2022/05/01 09:04:06;;;;;;;;;;;12.00;82.00;;;;;;5024814;28;20396;-66
2022/05/01 09:06:36;;;;;;;;;;;12.00;80.50;;;;;;5022717;28;20464;-63
2022/05/01 09:09:08;;;;;;;;;;;12.10;80.90;;;;;;5020940;28;19920;-60
2022/05/01 09:14:20;;;;;;;;;;;12.20;79.20;;;;;;5019374;28;19932;-65
2022/05/01 09:17:05;;;;;;;;;;;12.20;78.50;;;;;;5020637;28;19921;-65
2022/05/01 09:19:31;;;;;;;;;;;12.20;79.90;;;;;;5015011;28;19915;-64
2022/05/01 09:21:56;;;;;;;;;;;12.30;78.60;;;;;;5018681;28;20298;-65
2022/05/01 09:24:28;;;;;;;;;;;12.30;78.50;;;;;;5020996;28;19967;-64
2022/05/01 09:26:54;;;;;;;;;;;12.40;78.30;;;;;;5017899;28;19928;-62
2022/05/01 09:29:21;;;;;;;;;;;12.40;78.00;;;;;;5026120;28;19920;-66
2022/05/01 09:31:46;;;;;;;;;;;12.40;77.30;;;;;;5022944;28;19913;-66
2022/05/01 09:34:25;;;;;;;;;;;12.40;77.50;;;;;;5025474;28;20826;-64
2022/05/01 09:36:51;;;;;;;;;;;12.40;77.50;;;;;;5026325;28;19947;-65
2022/05/01 09:39:20;;;;;;;;;;;12.50;77.40;;;;;;5019283;28;19919;-65
2022/05/01 09:41:45;;;;;;;;;;;12.50;76.80;;;;;;5020965;28;19957;-63
2022/05/01 09:44:14;;;;;;;;;;;12.50;76.40;;;;;;5024095;28;19942;-64
2022/05/01 09:46:40;;;;;;;;;;;12.60;77.20;;;;;;5020603;28;19921;-64
2022/05/01 09:49:13;;;;;;;;;;;12.70;77.50;;;;;;5017370;28;20386;-66
2022/05/01 09:51:41;;;;;;;;;;;12.70;78.30;;;;;;5022591;28;20298;-66
2022/05/01 09:54:07;;;;;;;;;;;12.90;77.70;;;;;;5021523;28;19998;-66
2022/05/01 09:56:52;;;;;;;;;;;13.00;75.70;;;;;;5020839;28;20004;-60
2022/05/01 09:59:19;;;;;;;;;;;13.10;75.70;;;;;;5026247;28;19914;-65
2022/05/01 10:01:54;;;;;;;;;;;13.10;75.90;;;;;;5025870;28;19936;-65
2022/05/01 10:04:21;;;;;;;;;;;13.10;75.40;;;;;;5026299;28;19920;-66
2022/05/01 10:06:47;;;;;;;;;;;13.10;74.20;;;;;;5024882;28;19975;-64
2022/05/01 10:09:14;;;;;;;;;;;13.10;75.30;;;;;;5027168;28;19921;-64
2022/05/01 10:11:39;;;;;;;;;;;13.20;74.60;;;;;;5059265;28;19917;-66
2022/05/01 10:14:05;;;;;;;;;;;13.30;73.60;;;;;;5022642;28;19928;-60
2022/05/01 10:16:30;;;;;;;;;;;13.40;73.20;;;;;;5021353;28;19917;-65
2022/05/01 10:18:56;;;;;;;;;;;13.50;74.20;;;;;;5031824;28;19999;-64
2022/05/01 10:21:22;;;;;;;;;;;13.50;73.20;;;;;;5021526;28;19913;-63
2022/05/01 10:23:48;;;;;;;;;;;13.60;74.80;;;;;;5016314;28;20394;-65
2022/05/01 10:26:16;;;;;;;;;;;13.70;73.50;;;;;;5025865;28;19960;-64
2022/05/01 10:28:50;;;;;;;;;;;13.80;74.00;;;;;;5027063;28;19917;-66
2022/05/01 10:34:20;;;;;;;;;;;13.90;73.10;;;;;;5026600;28;20429;-64
2022/05/01 10:37:04;;;;;;;;;;;13.90;72.00;;;;;;5025717;28;19918;-63
2022/05/01 10:39:33;;;;;;;;;;;13.90;71.40;;;;;;5019723;28;20454;-65
2022/05/01 10:41:59;;;;;;;;;;;13.90;70.30;;;;;;5019850;28;19925;-65
2022/05/01 10:44:30;;;;;;;;;;;13.90;70.20;;;;;;5028544;28;20456;-66
2022/05/01 10:47:03;;;;;;;;;;;13.90;69.90;;;;;;5016688;28;19922;-66
2022/05/01 10:49:36;;;;;;;;;;;13.90;70.10;;;;;;5022336;28;19917;-66
2022/05/01 10:52:17;;;;;;;;;;;13.90;69.90;;;;;;5025137;28;19913;-66
2022/05/01 10:54:49;;;;;;;;;;;14.00;70.50;;;;;;5025506;28;19994;-64
2022/05/01 10:57:15;;;;;;;;;;;14.10;69.00;;;;;;5026863;28;19914;-65
2022/05/01 10:59:47;;;;;;;;;;;14.00;69.90;;;;;;5026557;28;19920;-64
2022/05/01 11:02:19;;;;;;;;;;;14.10;71.40;;;;;;5026500;28;20004;-64
2022/05/01 11:04:45;;;;;;;;;;;14.20;70.70;;;;;;5027767;28;20393;-62
2022/05/01 11:07:12;;;;;;;;;;;14.40;69.40;;;;;;5028369;28;19913;-64
2022/05/01 11:09:39;;;;;;;;;;;14.40;70.70;;;;;;5026256;28;19913;-59
2022/05/01 11:12:07;;;;;;;;;;;14.40;69.80;;;;;;5024754;28;19947;-63
2022/05/01 11:14:33;;;;;;;;;;;14.40;69.40;;;;;;5024431;28;20000;-62
2022/05/01 11:16:58;;;;;;;;;;;14.50;68.80;;;;;;5026633;28;19953;-63
2022/05/01 11:19:24;;;;;;;;;;;14.50;67.10;;;;;;5026297;28;19921;-61
2022/05/01 11:21:49;;;;;;;;;;;14.50;68.10;;;;;;5023184;28;19913;-63
2022/05/01 11:24:15;;;;;;;;;;;14.50;68.50;;;;;;5016510;28;19921;-64
2022/05/01 11:27:00;;;;;;;;;;;14.60;68.60;;;;;;5023765;28;20275;-65
2022/05/01 11:29:25;;;;;;;;;;;14.60;68.20;;;;;;5028068;28;20710;-65
2022/05/01 11:31:52;;;;;;;;;;;14.50;67.10;;;;;;5019742;28;19949;-63
2022/05/01 11:34:21;;;;;;;;;;;14.60;67.50;;;;;;5023243;28;19925;-61
2022/05/01 11:36:54;;;;;;;;;;;14.70;67.70;;;;;;5023923;28;19918;-64
2022/05/01 11:39:20;;;;;;;;;;;14.70;67.10;;;;;;5022238;28;19925;-63
2022/05/01 11:41:47;;;;;;;;;;;14.80;68.70;;;;;;5027313;28;20293;-65
2022/05/01 11:44:23;;;;;;;;;;;14.80;67.20;;;;;;5025204;28;19921;-64
2022/05/01 11:46:48;;;;;;;;;;;14.90;68.70;;;;;;5020557;28;19952;-68
2022/05/01 11:49:14;;;;;;;;;;;14.90;65.60;;;;;;5023244;28;19953;-68
2022/05/01 11:51:39;;;;;;;;;;;14.90;66.20;;;;;;5025569;28;19921;-66
2022/05/01 11:54:05;;;;;;;;;;;14.80;65.30;;;;;;5022252;28;19925;-70
2022/05/01 12:04:44;;;;;;;;;;;14.80;65.90;;;;;;5029461;28;19963;-69
2022/05/01 12:07:15;;;;;;;;;;;14.80;65.20;;;;;;5021537;28;19932;-67
2022/05/01 12:09:41;;;;;;;;;;;14.80;64.60;;;;;;5022824;28;19913;-68
2022/05/01 12:12:11;;;;;;;;;;;14.80;64.50;;;;;;5024300;28;19913;-66
2022/05/01 12:14:38;;;;;;;;;;;14.70;65.40;;;;;;5025685;28;19921;-66
2022/05/01 12:17:07;;;;;;;;;;;14.70;65.60;;;;;;5025475;28;19920;-67
2022/05/01 12:19:33;;;;;;;;;;;14.70;65.00;;;;;;5026112;28;20102;-68
2022/05/01 12:21:59;;;;;;;;;;;14.70;64.60;;;;;;5024536;28;19913;-68
2022/05/01 12:24:25;;;;;;;;;;;14.70;65.30;;;;;;5019295;28;19917;-69
2022/05/01 12:26:54;;;;;;;;;;;14.70;65.40;;;;;;5021741;28;19917;-68
2022/05/01 12:29:20;;;;;;;;;;;14.80;66.50;;;;;;5025425;28;19913;-69
2022/05/01 12:31:58;;;;;;;;;;;14.80;65.70;;;;;;5022092;28;19922;-68
2022/05/01 12:34:24;;;;;;;;;;;14.90;65.70;;;;;;5019678;28;19925;-69
2022/05/01 12:36:54;;;;;;;;;;;14.80;66.10;;;;;;5026447;28;19928;-67
2022/05/01 12:39:21;;;;;;;;;;;14.90;66.30;;;;;;5021561;28;19913;-67
2022/05/01 12:45:13;;;;;;;;;;;15.00;65.40;;;;;;5020586;28;20400;-67
2022/05/01 12:47:46;;;;;;;;;;;15.10;64.00;;;;;;5022402;28;19928;-69
2022/05/01 12:50:17;;;;;;;;;;;15.10;64.20;;;;;;5018901;28;19920;-64
2022/05/01 12:52:43;;;;;;;;;;;15.10;63.80;;;;;;5020861;28;19959;-69
2022/05/01 12:55:14;;;;;;;;;;;15.00;64.50;;;;;;5023593;28;19925;-68
2022/05/01 12:57:40;;;;;;;;;;;15.10;65.30;;;;;;5018784;28;20378;-69
2022/05/01 13:00:06;;;;;;;;;;;15.20;65.40;;;;;;5020470;28;19917;-68
2022/05/01 13:02:32;;;;;;;;;;;15.30;63.40;;;;;;5024287;28;19925;-66
2022/05/01 13:04:59;;;;;;;;;;;15.20;63.90;;;;;;5025693;28;19913;-67
2022/05/01 13:07:31;;;;;;;;;;;15.20;64.20;;;;;;5021339;28;19925;-66
2022/05/01 13:09:57;;;;;;;;;;;15.30;64.60;;;;;;5019208;28;19918;-64
2022/05/01 13:12:34;;;;;;;;;;;15.30;64.60;;;;;;5019266;28;19918;-68
2022/05/01 13:15:02;;;;;;;;;;;15.30;64.30;;;;;;5018643;28;20449;-67
2022/05/01 13:17:28;;;;;;;;;;;15.40;65.50;;;;;;5027561;28;19952;-67
2022/05/01 13:19:55;;;;;;;;;;;15.50;63.80;;;;;;5023085;28;20715;-67
2022/05/01 13:22:21;;;;;;;;;;;15.60;64.50;;;;;;5018787;28;19925;-66
2022/05/01 13:24:52;;;;;;;;;;;15.60;65.00;;;;;;5016607;28;19917;-63
2022/05/01 13:27:18;;;;;;;;;;;15.70;63.10;;;;;;5021714;28;19917;-63
2022/05/01 13:29:43;;;;;;;;;;;15.50;62.20;;;;;;5024057;28;19928;-64
2022/05/01 13:32:09;;;;;;;;;;;15.50;63.30;;;;;;5024065;28;19913;-65
2022/05/01 13:34:39;;;;;;;;;;;15.50;63.80;;;;;;5029938;28;19932;-63
2022/05/01 13:37:06;;;;;;;;;;;15.50;63.60;;;;;;5029235;28;19964;-63
2022/05/01 13:45:00;;;;;;;;;;;15.60;62.60;;;;;;5027206;28;19963;-65
2022/05/01 13:47:26;;;;;;;;;;;15.60;62.10;;;;;;5027335;28;19953;-64
2022/05/01 13:49:51;;;;;;;;;;;15.60;62.30;;;;;;5024287;28;19956;-66
2022/05/01 13:52:17;;;;;;;;;;;15.60;62.50;;;;;;5035981;28;20031;-65
2022/05/01 13:54:45;;;;;;;;;;;15.50;60.90;;;;;;5025637;28;19956;-63
2022/05/01 13:57:11;;;;;;;;;;;15.50;60.40;;;;;;5022375;28;19917;-61
2022/05/01 13:59:37;;;;;;;;;;;15.50;61.20;;;;;;5024417;28;19935;-62
2022/05/01 14:02:03;;;;;;;;;;;15.50;61.00;;;;;;5028811;28;20382;-64
2022/05/01 14:04:29;;;;;;;;;;;15.50;61.40;;;;;;5030999;28;19917;-61
2022/05/01 14:06:55;;;;;;;;;;;15.50;61.40;;;;;;5026888;28;20338;-61
2022/05/01 14:09:20;;;;;;;;;;;15.50;62.00;;;;;;5021980;28;19975;-64
2022/05/01 14:11:47;;;;;;;;;;;15.60;62.50;;;;;;5024834;28;19928;-63
2022/05/01 14:14:13;;;;;;;;;;;15.60;62.20;;;;;;5023779;28;19922;-63
2022/05/01 14:16:41;;;;;;;;;;;15.60;61.50;;;;;;5026047;28;19924;-62
2022/05/01 14:19:10;;;;;;;;;;;15.60;60.70;;;;;;5025672;28;20428;-63
2022/05/01 14:21:39;;;;;;;;;;;15.60;61.00;;;;;;5025990;28;19921;-63
2022/05/01 14:24:06;;;;;;;;;;;15.70;60.40;;;;;;5023757;28;19983;-64
2022/05/01 14:26:31;;;;;;;;;;;15.90;60.60;;;;;;5025491;28;19967;-63
2022/05/01 14:28:57;;;;;;;;;;;15.90;59.70;;;;;;5024780;28;20523;-63
2022/05/01 14:31:35;;;;;;;;;;;15.90;59.80;;;;;;5025876;28;20349;-65
2022/05/01 14:34:24;;;;;;;;;;;15.90;59.90;;;;;;5022465;28;19963;-65
2022/05/01 14:36:53;;;;;;;;;;;15.90;59.40;;;;;;5023381;28;20024;-64
2022/05/01 14:39:21;;;;;;;;;;;15.90;59.80;;;;;;5023127;28;20027;-63
2022/05/01 14:41:50;;;;;;;;;;;15.90;59.50;;;;;;5023218;28;19925;-63
2022/05/01 14:44:28;;;;;;;;;;;16.00;59.60;;;;;;5025092;28;19918;-63
2022/05/01 14:46:57;;;;;;;;;;;16.00;59.70;;;;;;5031476;28;20032;-65
2022/05/01 14:49:38;;;;;;;;;;;16.00;60.10;;;;;;5018290;28;19918;-65
2022/05/01 14:52:04;;;;;;;;;;;16.10;59.20;;;;;;5021355;28;19913;-63
2022/05/01 14:54:31;;;;;;;;;;;16.10;59.00;;;;;;5021353;28;19947;-64
2022/05/01 14:57:00;;;;;;;;;;;16.00;60.10;;;;;;5031397;28;19917;-64
2022/05/01 15:07:46;;;;;;;;;;;16.20;60.00;;;;;;5021570;28;19975;-61
2022/05/01 15:10:11;;;;;;;;;;;16.30;59.00;;;;;;5025224;28;20282;-61
2022/05/01 15:12:37;;;;;;;;;;;16.30;60.00;;;;;;5023526;28;19914;-63